Dobrodošli na spletni strani vremenske postaje Senovo. Vse informacije so informativnega značaja, saj vremenska postaja ni del državne mreže meteoroloških postaj. AKTUALNIH OBVESTIL NI.


Sneg/Led Od: 21-02-2018 00:00 Do: 23-02-2018 23:59 Opozorilo za: Sneg/Led Stopnja: Rumena info button
Veter Od: 21-02-2018 00:00 Do: 22-02-2018 23:59 Opozorilo za: Veter Stopnja: Rumena info button

Pogled proti Armezu več informacij Pogled proti Armezu


Lisca več informacij Lisca


Radar strel več informacij blitzortung!


opozorilo za sneg/led več informacij rain snow radar


Obiščite še:

Template documentation
and downloads

And another site



Weather Underground, zgodovina - Tekstovno

Dnevni povzetek za December 12, 2017 Enote:  Angleško    Metrično   Obe
« Predhodni Dan
Naslednji Dan »
Dnevni Tedenski Mesečni Letni Po meri
  Višja: Nižja: Povprečje:
Temperatura: TemperatureC °F 6.8 °F 11.2 °F
Točka rosišča: DewpointC °F 3.2 °F 5.4 °F
Vlažnost: Humidity % 45 % 70 %
Hitrost vetra: WindSpeedKMH mph 0.0 mph 3.8 mph
Sunki vetra: WindSpeedGustKMH mph - -
Veter:- - WSW
Zračni tlak: PressurehPa in 996.8 in -
Padavine: 6.3 in    
Historical Graphs
 
 
Tabelarni podarki za December 12, 2017
Čas Temperatura Točka rosišča Zračni tlak Veter Hitrost vetra Sunki vetra Vlažnost Intenziteta padavin (urna)
TemperatureC °F DewpointC °F PressurehPa in Calm     Humidity % HourlyPrecipMM in
00:03 14.7 °F 4.7 °F 997.9 in WSW 8.2 mph 22.4 mph 51 % 0.0 in
00:08 14.7 °F 4.7 °F 997.9 in SW 5.3 mph 14.0 mph 51 % 0.0 in
00:13 14.6 °F 4.6 °F 996.8 in SW 6.0 mph 14.0 mph 51 % 0.0 in
00:28 14.4 °F 4.4 °F 997.9 in SW 7.1 mph 13.0 mph 51 % 0.0 in
00:33 14.4 °F 4.4 °F 997.9 in SW 6.4 mph 13.0 mph 51 % 0.0 in
00:38 14.3 °F 4.3 °F 997.9 in SW 5.5 mph 12.6 mph 51 % 0.0 in
00:48 14.2 °F 4.5 °F 996.8 in SW 4.8 mph 12.2 mph 52 % 0.0 in
00:53 14.2 °F 4.5 °F 996.8 in SW 7.2 mph 13.7 mph 52 % 0.0 in
00:58 14.3 °F 4.3 °F 997.9 in SW 8.2 mph 14.0 mph 51 % 0.0 in
01:03 14.2 °F 4.2 °F 997.9 in SW 7.6 mph 14.0 mph 51 % 0.0 in
01:08 14.3 °F 4.3 °F 997.9 in WSW 10.1 mph 17.2 mph 51 % 0.0 in
01:13 14.3 °F 4.3 °F 997.9 in WSW 11.1 mph 20.1 mph 51 % 0.0 in
01:23 14.2 °F 3.9 °F 997.9 in WSW 11.1 mph 16.9 mph 50 % 0.0 in
01:28 14.3 °F 4.0 °F 997.9 in West 11.9 mph 20.6 mph 50 % 0.0 in
01:43 14.1 °F 4.1 °F 997.9 in WSW 11.1 mph 18.3 mph 51 % 0.0 in
01:48 14.1 °F 4.1 °F 997.9 in WSW 10.8 mph 20.9 mph 51 % 0.0 in
01:53 14.1 °F 4.1 °F 997.9 in WSW 11.1 mph 20.9 mph 51 % 0.0 in
01:58 13.9 °F 4.2 °F 998.9 in West 8.2 mph 16.3 mph 52 % 0.0 in
02:03 13.9 °F 4.2 °F 998.9 in West 8.5 mph 15.8 mph 52 % 0.0 in
02:08 13.9 °F 4.2 °F 998.9 in WSW 9.2 mph 15.8 mph 52 % 0.0 in
02:13 13.9 °F 4.2 °F 998.9 in WSW 8.8 mph 15.8 mph 52 % 0.0 in
02:20 14.0 °F 4.3 °F 998.9 in WSW 9.8 mph 19.5 mph 52 % 0.0 in
02:35 13.8 °F 4.4 °F 998.9 in West 8.7 mph 13.7 mph 53 % 0.0 in
02:40 13.5 °F 4.1 °F 998.9 in West 9.7 mph 15.8 mph 53 % 0.0 in
02:45 13.6 °F 4.2 °F 998.9 in West 9.3 mph 15.8 mph 53 % 0.0 in
02:55 13.6 °F 4.4 °F 998.9 in WSW 9.3 mph 16.9 mph 54 % 0.0 in
03:06 13.4 °F 4.3 °F 998.9 in West 7.1 mph 14.0 mph 54 % 0.0 in
03:11 12.9 °F 4.1 °F 998.9 in West 6.0 mph 14.0 mph 55 % 0.0 in
03:16 12.4 °F 3.6 °F 999.9 in WSW 4.3 mph 12.2 mph 55 % 0.0 in
03:21 12.3 °F 3.8 °F 999.9 in SSW 3.7 mph 7.6 mph 56 % 0.0 in
03:26 13.5 °F 4.9 °F 999.9 in SW 8.7 mph 33.8 mph 56 % 0.0 in
03:31 14.0 °F 5.3 °F 998.9 in SW 11.1 mph 33.8 mph 56 % 0.0 in
03:41 14.6 °F 5.4 °F 998.9 in SSW 7.2 mph 16.9 mph 54 % 0.0 in
03:46 14.8 °F 5.3 °F 998.9 in SSW 8.8 mph 16.6 mph 53 % 0.0 in
03:51 14.9 °F 5.4 °F 998.9 in SW 9.2 mph 16.6 mph 53 % 0.0 in
04:01 15.2 °F 4.8 °F 999.9 in SW 8.7 mph 19.8 mph 50 % 0.0 in
04:06 15.4 °F 4.7 °F 999.9 in WSW 8.8 mph 19.8 mph 49 % 0.0 in
04:11 15.4 °F 4.7 °F 999.9 in SW 9.2 mph 28.0 mph 49 % 0.0 in
04:16 15.5 °F 4.5 °F 998.9 in SW 9.7 mph 28.0 mph 48 % 0.0 in
04:26 15.6 °F 4.3 °F 998.9 in WSW 6.1 mph 15.8 mph 47 % 0.0 in
04:31 15.7 °F 4.4 °F 998.9 in WSW 6.0 mph 16.9 mph 47 % 0.0 in
04:36 15.7 °F 4.1 °F 998.9 in WSW 6.3 mph 16.9 mph 46 % 0.0 in
04:46 15.6 °F 4.0 °F 998.9 in WSW 7.4 mph 27.4 mph 46 % 0.0 in
04:51 15.8 °F 4.2 °F 998.9 in WSW 9.7 mph 27.4 mph 46 % 0.0 in
04:56 15.8 °F 3.9 °F 998.9 in WSW 10.0 mph 21.2 mph 45 % 0.0 in
05:01 15.8 °F 3.9 °F 998.9 in WSW 9.0 mph 15.4 mph 45 % 0.0 in
05:06 15.8 °F 3.9 °F 998.9 in WSW 9.5 mph 23.8 mph 45 % 0.0 in
05:16 15.8 °F 3.9 °F 998.9 in West 6.9 mph 20.1 mph 45 % 0.0 in
05:21 15.8 °F 3.9 °F 998.9 in WSW 6.4 mph 16.9 mph 45 % 0.0 in
05:26 15.8 °F 3.9 °F 998.9 in WSW 5.5 mph 11.9 mph 45 % 0.0 in
05:41 15.7 °F 3.8 °F 998.9 in SW 4.3 mph 11.9 mph 45 % 0.0 in
05:46 15.4 °F 3.5 °F 997.9 in SSW 3.1 mph 6.9 mph 45 % 0.0 in
05:51 15.4 °F 3.5 °F 997.9 in South 2.7 mph 8.7 mph 45 % 0.0 in
05:56 15.4 °F 3.5 °F 997.9 in South 3.2 mph 8.7 mph 45 % 0.0 in
06:01 15.2 °F 3.3 °F 998.9 in SSE 3.9 mph 8.7 mph 45 % 0.0 in
06:06 15.0 °F 3.4 °F 998.9 in SSE 4.8 mph 6.4 mph 46 % 0.0 in
06:16 14.7 °F 3.2 °F 998.9 in SE 5.8 mph 11.9 mph 46 % 0.0 in
06:26 14.5 °F 3.3 °F 998.9 in South 5.8 mph 12.2 mph 47 % 0.0 in
06:31 14.5 °F 3.6 °F 999.9 in South 6.4 mph 11.1 mph 48 % 0.0 in
06:36 14.5 °F 3.6 °F 999.9 in South 5.3 mph 10.5 mph 48 % 0.0 in
06:41 14.4 °F 3.5 °F 999.9 in SSW 4.3 mph 10.5 mph 48 % 0.0 in
06:46 14.2 °F 3.6 °F 999.9 in SW 3.7 mph 7.2 mph 49 % 0.0 in
06:51 13.7 °F 3.4 °F 999.9 in WSW 2.3 mph 5.0 mph 50 % 0.0 in
06:56 13.5 °F 3.3 °F 999.9 in NNW 2.4 mph 6.1 mph 50 % 0.0 in
07:01 13.7 °F 3.7 °F 1000.9 in NNE 3.7 mph 11.9 mph 51 % 0.0 in
07:06 14.2 °F 4.2 °F 1000.9 in SSW 4.8 mph 11.9 mph 51 % 0.0 in
07:16 15.2 °F 4.8 °F 1000.9 in WSW 6.3 mph 15.1 mph 50 % 0.0 in
07:21 15.6 °F 4.9 °F 1000.9 in West 8.4 mph 15.8 mph 49 % 0.0 in
07:36 16.0 °F 4.4 °F 999.9 in SW 7.6 mph 16.6 mph 46 % 0.0 in
07:41 16.1 °F 4.4 °F 999.9 in WSW 8.7 mph 17.7 mph 46 % 0.0 in
07:46 16.2 °F 4.6 °F 1000.9 in WSW 10.6 mph 24.5 mph 46 % 0.0 in
07:51 16.2 °F 4.6 °F 1000.9 in WSW 10.3 mph 24.5 mph 46 % 0.0 in
08:01 16.1 °F 4.4 °F 1001.9 in West 8.7 mph 20.6 mph 46 % 0.0 in
08:06 16.1 °F 4.4 °F 1001.9 in West 5.6 mph 14.0 mph 46 % 0.0 in
08:16 16.1 °F 4.4 °F 1001.9 in WSW 9.2 mph 16.9 mph 46 % 0.0 in
08:21 16.1 °F 4.4 °F 1001.9 in WSW 8.2 mph 17.7 mph 46 % 0.0 in
08:26 16.1 °F 4.4 °F 1001.9 in SW 6.3 mph 17.7 mph 46 % 0.0 in
08:31 16.1 °F 4.4 °F 1002.9 in South 5.6 mph 20.1 mph 46 % 0.0 in
08:36 16.0 °F 4.7 °F 1002.9 in SSW 6.4 mph 20.1 mph 47 % 0.0 in
08:41 16.0 °F 4.7 °F 1002.9 in SW 8.5 mph 24.5 mph 47 % 0.0 in
08:51 15.8 °F 4.8 °F 1002.9 in West 10.1 mph 28.0 mph 48 % 0.0 in
08:56 14.9 °F 4.6 °F 1002.9 in West 12.7 mph 32.8 mph 50 % 0.0 in
09:01 14.1 °F 4.4 °F 1003.9 in West 11.6 mph 32.8 mph 52 % 0.0 in
09:06 13.6 °F 4.4 °F 1003.9 in West 8.0 mph 25.9 mph 54 % 0.0 in
09:16 12.5 °F 4.7 °F 1005.0 in WSW 5.3 mph 14.0 mph 59 % 0.3 in
09:21 12.1 °F 4.8 °F 1005.0 in WSW 6.1 mph 17.2 mph 61 % 0.3 in
09:31 11.4 °F 5.1 °F 1005.0 in WNW 6.1 mph 16.6 mph 65 % 0.8 in
09:41 11.0 °F 5.3 °F 1005.0 in SW 5.1 mph 10.8 mph 68 % 1.0 in
09:46 10.9 °F 5.4 °F 1003.9 in SSW 5.1 mph 10.8 mph 69 % 1.0 in
09:56 10.8 °F 5.7 °F 1003.9 in South 3.9 mph 9.7 mph 71 % 1.0 in
10:06 10.7 °F 5.8 °F 1005.0 in WSW 5.3 mph 14.0 mph 72 % 1.3 in
10:16 10.5 °F 5.9 °F 1005.0 in WSW 5.0 mph 13.7 mph 73 % 1.0 in
10:36 10.3 °F 6.1 °F 1007.0 in SSW 4.7 mph 9.0 mph 75 % 1.0 in
10:41 10.3 °F 6.1 °F 1007.0 in SSW 4.5 mph 6.9 mph 75 % 1.0 in
10:46 10.2 °F 6.2 °F 1007.0 in SW 5.1 mph 6.9 mph 76 % 1.0 in
10:51 10.2 °F 6.2 °F 1007.0 in SSW 5.0 mph 6.9 mph 76 % 1.5 in
10:56 10.1 °F 6.2 °F 1007.0 in SSW 4.8 mph 7.9 mph 77 % 1.8 in
11:01 10.1 °F 6.2 °F 1007.0 in SSW 4.8 mph 9.3 mph 77 % 2.0 in
11:06 10.1 °F 6.4 °F 1007.0 in SSW 3.7 mph 9.3 mph 78 % 2.0 in
11:17 10.0 °F 6.5 °F 1007.0 in South 2.9 mph 6.4 mph 79 % 2.5 in
11:22 10.0 °F 6.7 °F 1007.0 in South 2.3 mph 5.0 mph 80 % 2.3 in
11:42 10.0 °F 7.1 °F 1006.0 in SSE 4.3 mph 7.9 mph 82 % 1.8 in
11:47 10.0 °F 7.1 °F 1006.0 in SSE 2.7 mph 7.9 mph 82 % 2.0 in
11:52 10.0 °F 7.1 °F 1006.0 in SSE 1.0 mph 6.1 mph 82 % 1.3 in
11:57 10.0 °F 7.2 °F 1006.0 in South 0.8 mph 6.1 mph 83 % 1.3 in
12:02 10.1 °F 7.3 °F 1007.0 in SSE 1.3 mph 4.7 mph 83 % 1.5 in
12:07 10.1 °F 7.3 °F 1007.0 in SE 0.8 mph 3.2 mph 83 % 1.3 in
12:12 10.1 °F 7.5 °F 1007.0 in SE 0.6 mph 4.0 mph 84 % 1.3 in
12:17 10.1 °F 7.5 °F 1006.0 in SE 1.8 mph 4.7 mph 84 % 1.3 in
12:27 10.2 °F 7.8 °F 1006.0 in WSW 2.6 mph 6.9 mph 85 % 1.3 in
12:32 10.3 °F 7.9 °F 1007.0 in WNW 1.3 mph 6.1 mph 85 % 1.3 in
12:37 10.3 °F 7.9 °F 1007.0 in SSW 1.9 mph 7.9 mph 85 % 1.3 in
12:42 10.4 °F 8.0 °F 1007.0 in SSW 3.2 mph 12.6 mph 85 % 1.3 in
12:47 10.5 °F 8.1 °F 1007.0 in SW 3.2 mph 12.6 mph 85 % 1.0 in
12:57 10.7 °F 8.4 °F 1007.0 in SW 5.6 mph 16.3 mph 86 % 1.0 in
13:07 10.8 °F 8.4 °F 1007.0 in West 4.8 mph 14.8 mph 85 % 0.8 in
13:12 10.8 °F 8.4 °F 1007.0 in WNW 4.0 mph 11.6 mph 85 % 0.5 in
13:17 10.8 °F 8.4 °F 1007.0 in West 5.0 mph 13.0 mph 85 % 0.5 in
13:27 10.8 °F 8.4 °F 1007.0 in West 5.1 mph 12.2 mph 85 % 0.3 in
13:32 10.8 °F 8.4 °F 1007.0 in WSW 4.7 mph 13.7 mph 85 % 0.5 in
13:37 10.8 °F 8.2 °F 1007.0 in SW 4.2 mph 13.7 mph 84 % 0.3 in
13:42 10.8 °F 8.2 °F 1007.0 in SW 4.5 mph 10.1 mph 84 % 0.3 in
13:47 10.8 °F 8.0 °F 1008.0 in WSW 5.0 mph 10.1 mph 83 % 0.3 in
13:52 10.8 °F 8.0 °F 1008.0 in WSW 5.1 mph 10.8 mph 83 % 0.3 in
13:57 10.8 °F 7.8 °F 1008.0 in West 3.9 mph 10.8 mph 82 % 0.3 in
14:02 10.8 °F 7.8 °F 1007.0 in SSW 3.9 mph 10.5 mph 82 % 0.3 in
14:17 10.7 °F 7.4 °F 1008.0 in West 2.4 mph 8.7 mph 80 % 0.3 in
14:27 10.7 °F 7.2 °F 1008.0 in WNW 2.1 mph 6.1 mph 79 % 0.3 in
14:32 10.7 °F 7.2 °F 1008.0 in NW 2.1 mph 6.1 mph 79 % 0.0 in
14:37 10.8 °F 7.1 °F 1008.0 in South 1.9 mph 6.1 mph 78 % 0.0 in
14:42 10.7 °F 6.8 °F 1008.0 in SSW 2.6 mph 9.0 mph 77 % 0.0 in
14:47 10.7 °F 6.8 °F 1008.0 in WSW 2.9 mph 9.0 mph 77 % 0.0 in
14:52 10.7 °F 6.7 °F 1008.0 in WSW 2.6 mph 8.7 mph 76 % 0.0 in
14:57 10.6 °F 6.6 °F 1008.0 in SSW 1.4 mph 6.1 mph 76 % 0.0 in
15:02 10.7 °F 6.7 °F 1008.0 in SSW 2.6 mph 6.4 mph 76 % 0.0 in
15:12 10.6 °F 6.3 °F 1008.0 in North 0.8 mph 4.3 mph 75 % 0.0 in
15:17 10.6 °F 6.3 °F 1008.0 in SSW 0.3 mph 4.0 mph 75 % 0.0 in
15:22 10.5 °F 6.3 °F 1008.0 in Calm   2.1 mph 75 % 0.0 in
15:27 10.4 °F 6.2 °F 1008.0 in Calm   2.1 mph 75 % 0.0 in
15:32 10.3 °F 6.1 °F 1009.0 in Calm     75 % 0.0 in
15:37 10.3 °F 6.1 °F 1009.0 in NNW 1.0 mph 6.4 mph 75 % 0.0 in
15:42 10.1 °F 5.9 °F 1009.0 in NNW 1.3 mph 6.4 mph 75 % 0.0 in
15:47 10.1 °F 5.9 °F 1009.0 in WNW 0.3 mph 3.5 mph 75 % 0.0 in
15:52 10.0 °F 5.8 °F 1009.0 in NW 0.2 mph 5.0 mph 75 % 0.0 in
15:57 9.8 °F 5.8 °F 1009.0 in NNW 0.3 mph 5.0 mph 76 % 0.0 in
16:02 9.7 °F 5.7 °F 1009.0 in NNW 0.3 mph 4.7 mph 76 % 0.0 in
16:07 9.6 °F 5.6 °F 1009.0 in NNW 0.2 mph 2.6 mph 76 % 0.0 in
16:12 9.5 °F 5.7 °F 1009.0 in Calm   1.4 mph 77 % 0.0 in
16:17 9.3 °F 5.4 °F 1009.0 in WNW 0.2 mph 3.2 mph 77 % 0.0 in
16:22 9.2 °F 5.6 °F 1009.0 in WNW 0.2 mph 3.2 mph 78 % 0.0 in
16:42 8.8 °F 5.6 °F 1008.0 in Calm     80 % 0.0 in
16:47 8.7 °F 5.4 °F 1009.0 in Calm     80 % 0.0 in
16:48 8.7 °F 5.4 °F 1009.0 in Calm     80 % 0.0 in
16:53 8.6 °F 5.5 °F 1009.0 in Calm     81 % 0.0 in
17:08 8.4 °F 5.5 °F 1009.0 in Calm     82 % 0.0 in
17:23 8.2 °F 5.5 °F 1009.0 in Calm     83 % 0.0 in
17:28 8.2 °F 5.5 °F 1009.0 in Calm     83 % 0.0 in
17:33 8.1 °F 5.4 °F 1009.0 in Calm     83 % 0.0 in
17:38 8.1 °F 5.4 °F 1009.0 in Calm     83 % 0.0 in
17:43 8.1 °F 5.6 °F 1010.0 in Calm     84 % 0.0 in
17:48 8.0 °F 5.4 °F 1010.0 in Calm     84 % 0.0 in
17:53 8.0 °F 5.4 °F 1010.0 in Calm     84 % 0.0 in
17:58 8.0 °F 5.6 °F 1010.0 in Calm     85 % 0.0 in
18:03 8.0 °F 5.6 °F 1010.0 in Calm     85 % 0.0 in
18:13 7.9 °F 5.7 °F 1010.0 in Calm     86 % 0.0 in
18:18 7.9 °F 5.7 °F 1010.0 in Calm     86 % 0.0 in
18:28 7.8 °F 5.6 °F 1011.1 in Calm     86 % 0.0 in
18:33 7.8 °F 5.6 °F 1011.1 in Calm     86 % 0.0 in
18:43 7.8 °F 5.8 °F 1011.1 in Calm     87 % 0.0 in
18:48 7.7 °F 5.7 °F 1011.1 in Calm     87 % 0.0 in
18:53 7.7 °F 5.7 °F 1011.1 in Calm     87 % 0.0 in
18:58 7.7 °F 5.7 °F 1011.1 in Calm     87 % 0.0 in
19:13 7.6 °F 5.7 °F 1011.1 in Calm     88 % 0.0 in
19:18 7.5 °F 5.7 °F 1011.1 in Calm     88 % 0.0 in
19:23 7.5 °F 5.7 °F 1011.1 in Calm     88 % 0.0 in
19:28 7.5 °F 5.7 °F 1011.1 in Calm     88 % 0.0 in
19:33 7.5 °F 5.8 °F 1011.1 in Calm     89 % 0.0 in
19:38 7.5 °F 5.8 °F 1011.1 in Calm     89 % 0.0 in
19:43 7.4 °F 5.7 °F 1011.1 in Calm     89 % 0.0 in
19:48 7.4 °F 5.7 °F 1010.0 in Calm     89 % 0.0 in
19:58 7.4 °F 5.7 °F 1010.0 in Calm   1.8 mph 89 % 0.0 in
20:03 7.5 °F 5.9 °F 1011.1 in Calm   1.8 mph 90 % 0.0 in
20:08 7.5 °F 5.9 °F 1011.1 in Calm   1.8 mph 90 % 0.0 in
20:13 7.6 °F 6.1 °F 1011.1 in North 0.6 mph 2.1 mph 90 % 0.0 in
20:18 7.6 °F 6.1 °F 1011.1 in NNW 1.3 mph 2.1 mph 90 % 0.0 in
20:23 7.5 °F 5.9 °F 1011.1 in NNW 1.4 mph 2.1 mph 90 % 0.0 in
20:33 7.4 °F 5.9 °F 1011.1 in NNW 0.3 mph 2.1 mph 90 % 0.0 in
20:51 7.3 °F 5.9 °F 1011.1 in Calm     91 % 0.0 in
20:56 7.3 °F 5.9 °F 1011.1 in Calm     91 % 0.0 in
21:06 7.2 °F 5.8 °F 1011.1 in Calm     91 % 0.0 in
21:11 7.2 °F 5.8 °F 1011.1 in Calm     91 % 0.0 in
21:16 7.1 °F 5.7 °F 1012.1 in Calm     91 % 0.0 in
21:21 7.1 °F 5.7 °F 1012.1 in Calm     91 % 0.0 in
21:36 7.0 °F 5.6 °F 1012.1 in Calm     91 % 0.0 in
21:46 7.0 °F 5.6 °F 1012.1 in Calm     91 % 0.0 in
21:51 6.9 °F 5.7 °F 1012.1 in Calm     92 % 0.0 in
22:01 6.9 °F 5.7 °F 1012.1 in Calm     92 % 0.0 in
22:06 6.9 °F 5.7 °F 1012.1 in Calm     92 % 0.0 in
22:11 6.8 °F 5.6 °F 1012.1 in Calm     92 % 0.0 in
22:16 6.8 °F 5.6 °F 1013.1 in Calm     92 % 0.0 in
22:26 6.8 °F 5.6 °F 1013.1 in Calm     92 % 0.0 in
22:31 6.8 °F 5.6 °F 1013.1 in Calm     92 % 0.0 in
22:36 6.8 °F 5.6 °F 1013.1 in Calm     92 % 0.0 in
22:41 6.8 °F 5.6 °F 1013.1 in Calm     92 % 0.3 in
22:51 6.8 °F 5.7 °F 1013.1 in SW 0.5 mph 3.2 mph 93 % 0.3 in
23:01 6.8 °F 5.7 °F 1013.1 in Calm     93 % 0.3 in
23:07 6.8 °F 5.7 °F 1013.1 in Calm     93 % 0.3 in
23:12 6.8 °F 5.7 °F 1013.1 in Calm     93 % 0.3 in
23:17 6.8 °F 5.7 °F 1013.1 in Calm     93 % 0.3 in
23:22 6.8 °F 5.7 °F 1013.1 in Calm     93 % 0.8 in
23:27 6.8 °F 5.7 °F 1013.1 in Calm     93 % 0.8 in
23:32 6.8 °F 5.7 °F 1013.1 in Calm     93 % 0.8 in
23:37 6.8 °F 5.7 °F 1013.1 in Calm     93 % 0.8 in
23:47 6.8 °F 5.7 °F 1013.1 in NW 0.8 mph 3.5 mph 93 % 0.3 in
23:52 6.9 °F 5.8 °F 1013.1 in NW 1.1 mph 2.1 mph 93 % 0.3 in
Vremenska postaja Senovo
Podatki zbrani iz Weather Underground - 2.5 mb

Script developed by  Jim McMurry - jmcmurry@mwt.net Adapted for the template by  Wim van der Kuil - Leuven-Template.eu

Vremenski podatki so objavljeni na:

European Weather Network

WeatherCloud

Weather Underground

AWEKAS

HAMweather, WeatherForYou, PWS Weather

MapView

Geostik

Slovenia weather network

Oprema, ki se uporablja:

Vremenski program
Cumulus

Vremenski server
Asus

Cumulus

Asus